createdAt,value
2016-02-17T00:00:25.714Z,0
2016-02-17T00:01:44.954Z,0
2016-02-17T00:02:25.735Z,0
2016-02-17T00:03:25.769Z,0
2016-02-17T00:04:38.510Z,0
2016-02-17T00:05:38.559Z,0
2016-02-17T00:06:45.061Z,0
2016-02-17T00:07:45.018Z,0
2016-02-17T00:08:51.488Z,0
2016-02-17T00:09:38.616Z,0
2016-02-17T00:10:25.819Z,0
2016-02-17T00:11:26.650Z,0
2016-02-17T00:12:38.609Z,0
2016-02-17T00:13:25.906Z,0
2016-02-17T00:14:25.877Z,0
2016-02-17T00:15:25.880Z,0
2016-02-17T00:16:38.604Z,0
2016-02-17T00:17:25.901Z,0
2016-02-17T00:19:22.906Z,0
2016-02-17T00:19:38.550Z,0
2016-02-17T00:20:35.489Z,0
2016-02-17T00:21:35.476Z,0
2016-02-17T00:22:41.808Z,0
2016-02-17T00:23:48.263Z,0
2016-02-17T00:24:43.203Z,0
2016-02-17T00:25:48.269Z,0
2016-02-17T00:26:38.569Z,0
2016-02-17T00:27:54.759Z,0
2016-02-17T00:28:35.683Z,0
2016-02-17T00:30:38.177Z,0
2016-02-17T00:30:50.599Z,0
2016-02-17T00:31:50.727Z,0
2016-02-17T00:32:56.871Z,0
2016-02-17T00:34:03.452Z,0
2016-02-17T00:35:03.360Z,0
2016-02-17T00:35:50.738Z,0
2016-02-17T00:38:19.212Z,0
2016-02-17T00:38:53.715Z,0
2016-02-17T00:39:53.717Z,0
2016-02-17T00:40:54.533Z,0
2016-02-17T00:42:06.473Z,0
2016-02-17T00:42:54.351Z,0
2016-02-17T00:44:06.493Z,0
2016-02-17T00:44:55.215Z,0
2016-02-17T00:46:12.984Z,0
2016-02-17T00:47:06.690Z,0
2016-02-17T00:48:19.504Z,0
2016-02-17T00:48:56.882Z,0
2016-02-17T00:50:06.542Z,0
2016-02-17T00:50:53.872Z,0
2016-02-17T00:52:06.578Z,0
2016-02-17T00:53:00.971Z,0
2016-02-17T00:53:53.850Z,0
2016-02-17T00:55:06.617Z,0
2016-02-17T00:55:53.886Z,0
2016-02-17T00:57:06.622Z,0
2016-02-17T00:57:54.500Z,0
2016-02-17T00:58:53.925Z,0
2016-02-17T00:59:53.927Z,0
2016-02-17T01:01:06.649Z,0
2016-02-17T01:01:53.917Z,0
2016-02-17T01:03:13.155Z,0
2016-02-17T01:04:06.688Z,0
2016-02-17T01:06:15.771Z,0
2016-02-17T01:06:28.349Z,0
2016-02-17T01:08:43.561Z,0
2016-02-17T01:09:43.532Z,0
2016-02-17T01:10:43.676Z,0
2016-02-17T01:11:49.788Z,0
2016-02-17T01:12:43.571Z,0
2016-02-17T01:13:56.293Z,0
2016-02-17T01:14:43.609Z,0
2016-02-17T01:16:59.411Z,0
2016-02-17T01:18:43.667Z,0
2016-02-17T01:19:02.573Z,0
2016-02-17T01:19:56.340Z,0
2016-02-17T01:20:56.218Z,0
2016-02-17T01:21:56.361Z,0
2016-02-17T01:23:02.615Z,0
2016-02-17T01:24:02.820Z,0
2016-02-17T01:25:09.089Z,0
2016-02-17T01:25:56.373Z,0
2016-02-17T01:27:53.362Z,0
2016-02-17T01:28:05.941Z,0
2016-02-17T01:29:05.928Z,0
2016-02-17T01:30:18.664Z,0
2016-02-17T01:31:05.949Z,0
2016-02-17T01:32:25.186Z,0
2016-02-17T01:33:12.875Z,0
2016-02-17T01:34:05.988Z,0
2016-02-17T01:35:18.724Z,0
2016-02-17T01:36:06.025Z,0
2016-02-17T01:37:18.730Z,0
2016-02-17T01:38:07.468Z,0
2016-02-17T01:39:06.016Z,0
2016-02-17T01:40:18.879Z,0
2016-02-17T01:41:18.772Z,0
2016-02-17T01:42:18.821Z,0
2016-02-17T01:43:18.809Z,0
2016-02-17T01:44:06.155Z,0
2016-02-17T01:45:06.096Z,0
2016-02-17T01:46:06.098Z,0
2016-02-17T01:47:06.085Z,0
2016-02-17T01:48:06.120Z,0
2016-02-17T01:49:07.528Z,0
2016-02-17T01:50:06.156Z,0
2016-02-17T01:51:05.970Z,0
2016-02-17T01:52:07.583Z,0
2016-02-17T01:53:06.320Z,0
2016-02-17T01:54:18.886Z,0
2016-02-17T01:55:18.747Z,0
2016-02-17T01:56:25.234Z,0
2016-02-17T01:57:25.409Z,0
2016-02-17T01:58:31.865Z,0
2016-02-17T01:59:06.242Z,0
2016-02-17T02:01:25.483Z,0
2016-02-17T02:02:06.860Z,0
2016-02-17T02:03:31.956Z,0
2016-02-17T02:04:12.521Z,0
2016-02-17T02:05:31.930Z,0
2016-02-17T02:06:06.277Z,0
2016-02-17T02:07:06.263Z,0
2016-02-17T02:08:06.299Z,0
2016-02-17T02:09:06.941Z,0
2016-02-17T02:10:19.069Z,0
2016-02-17T02:45:30.242Z,0
2016-02-17T02:45:55.667Z,0
2016-02-17T02:46:55.686Z,0
2016-02-17T02:47:55.875Z,0
2016-02-17T02:49:01.941Z,0
2016-02-17T02:50:08.474Z,0
2016-02-17T02:51:14.899Z,0
2016-02-17T02:52:14.933Z,0
2016-02-17T02:53:58.798Z,0
2016-02-17T02:54:58.863Z,0
2016-02-17T02:55:58.850Z,0
2016-02-17T02:56:58.838Z,0
2016-02-17T02:58:11.730Z,0
2016-02-17T02:59:05.155Z,0
2016-02-17T03:00:11.595Z,0
2016-02-17T03:01:18.113Z,0
2016-02-17T03:01:58.990Z,0
2016-02-17T03:03:18.104Z,0
2016-02-17T03:03:58.137Z,0
2016-02-17T03:04:58.874Z,0
2016-02-17T03:06:00.361Z,0
2016-02-17T03:07:11.629Z,0
2016-02-17T03:07:59.211Z,0
2016-02-17T03:09:18.134Z,0
2016-02-17T03:10:11.684Z,0
2016-02-17T03:11:24.625Z,0
2016-02-17T03:11:58.956Z,0
2016-02-17T03:13:57.352Z,0
2016-02-17T03:14:09.898Z,0
2016-02-17T03:15:10.025Z,0
2016-02-17T03:16:10.123Z,0
2016-02-17T03:17:10.000Z,0
2016-02-17T03:18:22.675Z,0
2016-02-17T03:19:16.240Z,0
2016-02-17T03:21:19.339Z,0
2016-02-17T03:22:38.732Z,0
2016-02-17T03:23:20.813Z,0
2016-02-17T03:25:15.678Z,0
2016-02-17T03:25:28.257Z,0
2016-02-17T03:26:28.243Z,0
2016-02-17T03:27:28.262Z,0
2016-02-17T03:28:35.155Z,0
2016-02-17T03:29:41.017Z,0
2016-02-17T03:30:47.522Z,0
2016-02-17T03:31:47.526Z,0
2016-02-17T03:33:25.356Z,0
2016-02-17T03:33:57.109Z,0
2016-02-17T03:34:44.205Z,0
2016-02-17T03:36:40.551Z,0
2016-02-17T03:36:56.164Z,0
2016-02-17T03:37:53.119Z,0
2016-02-17T03:39:56.265Z,0
2016-02-17T03:41:15.471Z,0
2016-02-17T03:42:09.005Z,0
2016-02-17T03:43:15.476Z,0
2016-02-17T03:44:53.263Z,0
2016-02-17T03:45:25.075Z,0
2016-02-17T03:46:06.063Z,0
2016-02-17T03:47:57.208Z,0
2016-02-17T03:48:22.505Z,0
2016-02-17T03:49:41.086Z,0
2016-02-17T03:50:22.527Z,0
2016-02-17T03:51:09.794Z,0
2016-02-17T03:52:28.985Z,0
2016-02-17T03:53:16.082Z,0
2016-02-17T03:55:06.790Z,0
2016-02-17T03:55:32.102Z,0
2016-02-17T03:57:10.733Z,0
2016-02-17T03:57:42.483Z,0
2016-02-17T03:59:20.285Z,0
2016-02-17T03:59:52.131Z,0
2016-02-17T04:01:04.182Z,0
2016-02-17T04:01:32.854Z,0
2016-02-17T04:02:32.981Z,0
2016-02-17T04:03:39.155Z,0
2016-02-17T04:04:39.158Z,0
2016-02-17T04:05:52.163Z,0
2016-02-17T04:06:32.913Z,0
2016-02-17T04:08:29.918Z,0
2016-02-17T04:09:01.687Z,0
2016-02-17T04:09:48.768Z,0
2016-02-17T04:10:55.270Z,0
2016-02-17T04:11:42.489Z,0
2016-02-17T04:13:39.588Z,0
2016-02-17T04:14:52.219Z,0
2016-02-17T04:16:39.940Z,0
2016-02-17T04:17:33.317Z,0
2016-02-17T04:18:41.258Z,0
2016-02-17T04:20:04.638Z,0
2016-02-17T04:20:42.669Z,0
2016-02-17T04:22:32.597Z,0
2016-02-17T04:24:41.743Z,0
2016-02-17T04:25:35.543Z,0
2016-02-17T04:26:48.251Z,0
2016-02-17T04:27:36.141Z,0
2016-02-17T04:29:32.584Z,0
2016-02-17T04:30:54.902Z,0
2016-02-17T04:32:20.218Z,0
2016-02-17T04:33:06.736Z,0
2016-02-17T04:34:33.207Z,0
2016-02-17T04:35:07.523Z,0
2016-02-17T04:37:10.121Z,0
2016-02-17T04:37:48.515Z,0
2016-02-17T04:39:19.674Z,0
2016-02-17T04:40:29.333Z,0
2016-02-17T04:41:32.414Z,0
2016-02-17T04:42:36.306Z,0
2016-02-17T04:43:01.622Z,0
2016-02-17T04:44:39.375Z,0
2016-02-17T04:45:17.642Z,0
2016-02-17T04:45:52.006Z,0
2016-02-17T04:48:26.370Z,0
2016-02-17T04:49:07.170Z,0
2016-02-17T04:51:09.769Z,0
2016-02-17T04:51:41.550Z,0
2016-02-17T04:52:22.366Z,0
2016-02-17T04:55:03.217Z,0
2016-02-17T04:56:28.876Z,0
2016-02-17T04:57:50.334Z,0
2016-02-17T04:58:34.943Z,0
2016-02-17T04:59:22.180Z,0
2016-02-17T05:00:34.058Z,0
2016-02-17T05:01:22.155Z,0
2016-02-17T05:02:28.611Z,0
2016-02-17T05:05:40.493Z,0
2016-02-17T05:06:15.074Z,0
2016-02-17T05:08:17.674Z,0
2016-02-17T05:08:30.221Z,0
2016-02-17T05:09:49.476Z,0
2016-02-17T05:10:42.976Z,0
2016-02-17T05:12:52.140Z,0
2016-02-17T05:13:04.734Z,0
2016-02-17T05:15:07.334Z,0
2016-02-17T05:15:19.881Z,0
2016-02-17T05:16:32.789Z,0
2016-02-17T05:17:20.370Z,0
2016-02-17T05:19:16.719Z,0
2016-02-17T05:20:32.409Z,0
2016-02-17T05:21:32.380Z,0
2016-02-17T05:22:32.446Z,0
2016-02-17T05:23:45.136Z,0
2016-02-17T05:24:33.873Z,0
2016-02-17T05:26:29.535Z,0
2016-02-17T05:27:01.335Z,0
2016-02-17T05:30:19.983Z,0
2016-02-17T05:30:48.702Z,0
2016-02-17T05:32:50.147Z,0
2016-02-17T05:33:48.694Z,0
2016-02-17T05:34:48.743Z,0
2016-02-17T05:35:48.731Z,0
2016-02-17T05:36:48.749Z,0
2016-02-17T05:37:48.737Z,0
2016-02-17T05:38:48.771Z,0
2016-02-17T05:39:49.351Z,0
2016-02-17T05:41:01.497Z,0
2016-02-17T05:41:49.356Z,0
2016-02-17T05:43:08.033Z,0
2016-02-17T05:43:50.252Z,0
2016-02-17T05:45:47.179Z,0
2016-02-17T05:46:56.779Z,0
2016-02-17T05:47:34.998Z,0
2016-02-17T05:51:12.320Z,0
2016-02-17T05:51:27.680Z,0
2016-02-17T05:53:30.311Z,0
2016-02-17T05:54:14.345Z,0
2016-02-17T05:54:42.892Z,0
2016-02-17T05:55:43.160Z,0
2016-02-17T05:56:55.665Z,0
2016-02-17T05:57:55.793Z,0
2016-02-17T05:59:02.170Z,0
2016-02-17T06:01:05.692Z,0
2016-02-17T06:01:55.850Z,0
2016-02-17T06:03:31.415Z,0
2016-02-17T06:04:18.324Z,0
2016-02-17T06:06:10.235Z,0
2016-02-17T06:06:43.564Z,0
2016-02-17T06:08:51.666Z,0
2016-02-17T06:09:45.198Z,0
2016-02-17T06:10:57.312Z,0
2016-02-17T06:13:01.161Z,0
2016-02-17T06:14:32.524Z,0
2016-02-17T06:15:42.120Z,0
2016-02-17T06:16:13.919Z,0
2016-02-17T06:16:54.719Z,0
2016-02-17T06:18:20.378Z,0
2016-02-17T06:19:07.490Z,0
2016-02-17T06:20:07.462Z,0
2016-02-17T06:21:13.948Z,0
2016-02-17T06:22:45.232Z,0
2016-02-17T06:23:23.486Z,0
2016-02-17T06:25:35.241Z,0
2016-02-17T06:26:32.275Z,0
2016-02-17T06:27:44.933Z,0
2016-02-17T06:28:32.436Z,5
2016-02-17T06:30:29.285Z,5
2016-02-17T06:30:41.847Z,5
2016-02-17T06:33:10.669Z,5
2016-02-17T06:35:07.658Z,5
2016-02-17T06:35:54.580Z,10
2016-02-17T06:37:22.835Z,10
2016-02-17T06:38:01.134Z,10
2016-02-17T06:38:48.165Z,10
2016-02-17T06:40:06.782Z,10
2016-02-17T06:40:42.672Z,15
2016-02-17T06:41:35.471Z,15
2016-02-17T06:43:25.976Z,15
2016-02-17T06:43:51.335Z,15
2016-02-17T06:44:38.588Z,20
2016-02-17T06:45:57.781Z,20
2016-02-17T06:46:40.031Z,20
2016-02-17T06:47:59.193Z,25
2016-02-17T06:48:51.490Z,25
2016-02-17T06:50:44.245Z,25
2016-02-17T06:51:15.998Z,30
2016-02-17T06:51:56.814Z,30
2016-02-17T06:54:32.099Z,35
2016-02-17T06:56:40.793Z,35
2016-02-17T06:57:28.795Z,40
2016-02-17T07:00:06.522Z,45
2016-02-17T07:00:19.100Z,45
2016-02-17T07:01:38.399Z,45
2016-02-17T07:02:25.450Z,45
2016-02-17T07:06:04.054Z,55
2016-02-17T07:06:57.541Z,55
2016-02-17T07:07:38.307Z,55
2016-02-17T07:08:38.325Z,60
2016-02-17T07:09:38.360Z,60
2016-02-17T07:10:51.065Z,65
2016-02-17T07:11:38.552Z,65
2016-02-17T07:13:41.588Z,70
2016-02-17T07:15:38.578Z,70
2016-02-17T07:16:41.754Z,75
2016-02-17T07:17:13.756Z,75
2016-02-17T07:18:51.945Z,80
2016-02-17T07:19:55.026Z,80
2016-02-17T07:20:26.795Z,80
2016-02-17T07:23:07.521Z,85
2016-02-17T07:23:39.271Z,90
2016-02-17T07:25:36.339Z,90
2016-02-17T07:26:51.623Z,95
2016-02-17T07:27:42.611Z,95
2016-02-17T07:30:04.494Z,100
2016-02-17T07:30:29.791Z,100
2016-02-17T07:33:48.549Z,105
2016-02-17T07:34:29.989Z,105
2016-02-17T07:35:17.866Z,110
2016-02-17T07:37:45.981Z,110
2016-02-17T07:40:32.599Z,115
2016-02-17T07:41:32.617Z,115
2016-02-17T07:42:32.588Z,115
2016-02-17T07:43:45.341Z,120
2016-02-17T07:44:38.844Z,120
2016-02-17T07:46:35.833Z,125
2016-02-17T07:47:51.696Z,125
2016-02-17T07:48:23.479Z,125
2016-02-17T07:51:01.248Z,130
2016-02-17T07:51:13.826Z,130
2016-02-17T07:53:17.065Z,135
2016-02-17T07:53:48.846Z,135
2016-02-17T07:54:29.647Z,135
2016-02-17T07:55:29.736Z,140
2016-02-17T07:56:35.937Z,140
2016-02-17T07:57:29.747Z,140
2016-02-17T07:58:48.930Z,140
2016-02-17T07:59:42.428Z,140
2016-02-17T08:01:26.601Z,145
2016-02-17T08:01:39.195Z,145
2016-02-17T08:03:41.806Z,145
2016-02-17T08:04:20.043Z,145
2016-02-17T08:04:54.262Z,145
2016-02-17T08:06:56.983Z,145
2016-02-17T08:07:35.235Z,150
2016-02-17T08:08:09.565Z,150
2016-02-17T08:10:06.554Z,150
2016-02-17T08:10:19.132Z,150
2016-02-17T08:12:23.215Z,150
2016-02-17T08:12:55.153Z,155
2016-02-17T08:13:35.780Z,155
2016-02-17T08:15:38.425Z,155
2016-02-17T08:16:16.677Z,155
2016-02-17T08:16:51.005Z,155
2016-02-17T08:18:53.652Z,155
2016-02-17T08:19:25.436Z,160
2016-02-17T08:20:06.266Z,160
2016-02-17T08:22:10.132Z,160
2016-02-17T08:22:48.397Z,165
2016-02-17T08:23:22.696Z,165
2016-02-17T08:25:19.733Z,165
2016-02-17T08:25:45.093Z,165
2016-02-17T08:26:38.596Z,165
2016-02-17T08:27:32.521Z,165
2016-02-17T08:28:51.555Z,170
2016-02-17T08:29:45.088Z,170
2016-02-17T08:33:04.924Z,170
2016-02-17T08:33:40.364Z,170
2016-02-17T08:34:39.133Z,175
2016-02-17T08:35:39.151Z,175
2016-02-17T08:36:51.888Z,170
2016-02-17T08:37:51.875Z,170
2016-02-17T08:38:58.503Z,170
2016-02-17T08:39:58.396Z,170
2016-02-17T08:41:10.556Z,175
2016-02-17T08:41:40.651Z,175
2016-02-17T08:43:36.829Z,175
2016-02-17T08:43:49.517Z,175
2016-02-17T08:45:52.007Z,175
2016-02-17T08:46:23.775Z,175
2016-02-17T08:47:04.681Z,175
2016-02-17T08:48:04.606Z,175
2016-02-17T08:49:17.439Z,175
2016-02-17T08:50:04.595Z,175
2016-02-17T08:51:23.835Z,180
2016-02-17T08:52:04.772Z,180
2016-02-17T08:54:07.902Z,180
2016-02-17T08:54:20.546Z,180
2016-02-17T08:56:23.739Z,180
2016-02-17T08:56:36.317Z,180
2016-02-17T08:58:39.041Z,180
2016-02-17T08:59:17.388Z,180
2016-02-17T08:59:51.591Z,180
2016-02-17T09:01:54.252Z,180
2016-02-17T09:02:32.505Z,180
2016-02-17T09:03:06.849Z,180
2016-02-17T09:05:09.293Z,185
2016-02-17T09:05:47.545Z,180
2016-02-17T09:06:21.860Z,180
2016-02-17T09:08:25.115Z,180
2016-02-17T09:08:37.662Z,180
2016-02-17T09:09:37.681Z,185
2016-02-17T09:10:43.995Z,180
2016-02-17T09:11:50.482Z,180
2016-02-17T09:12:45.391Z,180
2016-02-17T09:15:18.603Z,180
2016-02-17T09:16:44.434Z,190
2016-02-17T09:17:54.123Z,180
2016-02-17T09:19:03.439Z,180
2016-02-17T09:19:16.035Z,180
2016-02-17T09:20:28.600Z,180
2016-02-17T09:21:28.744Z,180
2016-02-17T09:22:35.261Z,180
2016-02-17T09:24:44.924Z,180
2016-02-17T09:25:38.442Z,180
2016-02-17T09:27:41.900Z,180
2016-02-17T09:28:25.809Z,180
2016-02-17T09:29:20.328Z,180
2016-02-17T09:29:54.641Z,180
2016-02-17T09:31:57.130Z,180
2016-02-17T09:32:09.708Z,180
2016-02-17T09:33:28.916Z,180
2016-02-17T09:34:09.729Z,180
2016-02-17T09:36:12.343Z,180
2016-02-17T09:36:44.097Z,180
2016-02-17T09:37:44.147Z,180
2016-02-17T09:38:26.509Z,180
2016-02-17T09:40:27.560Z,180
2016-02-17T09:40:40.139Z,180
2016-02-17T09:41:40.142Z,180
2016-02-17T09:42:41.551Z,180
2016-02-17T09:43:52.881Z,180
2016-02-17T09:44:42.181Z,180
2016-02-17T09:45:43.214Z,180
2016-02-17T09:46:52.920Z,180
2016-02-17T09:47:52.986Z,180
2016-02-17T09:49:00.020Z,180
2016-02-17T09:50:05.897Z,180
2016-02-17T09:51:42.840Z,180
2016-02-17T09:52:21.093Z,180
2016-02-17T09:52:55.422Z,180
2016-02-17T09:54:52.380Z,180
2016-02-17T09:55:08.036Z,180
2016-02-17T09:56:55.463Z,180
2016-02-17T09:57:08.041Z,180
2016-02-17T09:59:11.281Z,180
2016-02-17T09:59:23.862Z,180
2016-02-17T10:00:36.708Z,180
2016-02-17T10:01:31.539Z,180
2016-02-17T10:02:23.792Z,180
2016-02-17T10:03:26.951Z,180
2016-02-17T10:04:30.265Z,180
2016-02-17T10:05:23.909Z,180
2016-02-17T10:06:36.740Z,180
2016-02-17T10:07:24.133Z,180
2016-02-17T10:08:43.135Z,180
2016-02-17T10:09:30.310Z,180
2016-02-17T10:11:28.222Z,180
2016-02-17T10:12:07.190Z,180
2016-02-17T10:12:40.803Z,180
2016-02-17T10:14:06.571Z,180
2016-02-17T10:14:53.589Z,180
2016-02-17T10:15:47.140Z,180
2016-02-17T10:17:31.364Z,180
2016-02-17T10:17:44.114Z,180
2016-02-17T10:19:41.119Z,180
2016-02-17T10:20:12.931Z,180
2016-02-17T10:22:15.499Z,180
2016-02-17T10:22:47.252Z,180
2016-02-17T10:23:28.067Z,180
2016-02-17T10:25:31.416Z,180
2016-02-17T10:25:43.994Z,180
2016-02-17T10:26:44.028Z,180
2016-02-17T10:27:44.016Z,180
2016-02-17T10:28:45.439Z,180
2016-02-17T10:29:56.786Z,175
2016-02-17T10:30:47.070Z,175
2016-02-17T10:32:10.011Z,175
2016-02-17T10:32:56.810Z,180
2016-02-17T10:34:41.128Z,180
2016-02-17T10:35:37.771Z,185
2016-02-17T10:36:06.427Z,180
2016-02-17T10:37:57.011Z,180
2016-02-17T10:38:09.605Z,180
2016-02-17T10:39:15.874Z,180
2016-02-17T10:40:09.611Z,180
2016-02-17T10:41:22.363Z,180
2016-02-17T10:42:22.366Z,175
2016-02-17T10:43:22.416Z,175
2016-02-17T10:45:34.790Z,175
2016-02-17T10:47:36.081Z,175
2016-02-17T10:48:20.097Z,175
2016-02-17T10:49:51.289Z,175
2016-02-17T10:50:35.183Z,175
2016-02-17T10:52:00.858Z,175
2016-02-17T10:52:39.142Z,175
2016-02-17T10:53:26.408Z,175
2016-02-17T10:55:10.476Z,175
2016-02-17T10:56:07.103Z,175
2016-02-17T10:56:54.382Z,175
2016-02-17T10:57:42.291Z,175
2016-02-17T10:58:23.103Z,175
2016-02-17T11:00:25.780Z,175
2016-02-17T11:00:57.565Z,175
2016-02-17T11:01:38.348Z,175
2016-02-17T11:03:40.979Z,175
2016-02-17T11:04:12.854Z,175
2016-02-17T11:04:53.607Z,175
2016-02-17T11:06:56.190Z,175
2016-02-17T11:07:28.034Z,175
2016-02-17T11:08:08.771Z,175
2016-02-17T11:09:08.789Z,175
2016-02-17T11:10:15.043Z,175
2016-02-17T11:11:09.076Z,175
2016-02-17T11:12:21.610Z,175
2016-02-17T11:13:15.253Z,175
2016-02-17T11:14:28.053Z,175
2016-02-17T11:15:08.946Z,175
2016-02-17T11:17:05.890Z,175
2016-02-17T11:17:44.126Z,175
2016-02-17T11:18:18.548Z,175
2016-02-17T11:19:49.834Z,175
2016-02-17T11:20:31.334Z,175
2016-02-17T11:23:15.515Z,175
2016-02-17T11:23:59.377Z,175
2016-02-17T11:24:40.955Z,175
2016-02-17T11:27:25.291Z,175
2016-02-17T11:27:50.622Z,175
2016-02-17T11:28:37.903Z,175
2016-02-17T11:29:37.906Z,175
2016-02-17T11:30:50.755Z,175
2016-02-17T11:31:44.286Z,175
2016-02-17T11:32:57.152Z,195
2016-02-17T11:33:50.701Z,175
2016-02-17T11:35:34.953Z,175
2016-02-17T11:37:06.724Z,170
2016-02-17T11:39:53.216Z,175
2016-02-17T11:40:31.435Z,170
2016-02-17T11:41:05.813Z,170
2016-02-17T11:43:08.600Z,170
2016-02-17T11:43:40.413Z,170
2016-02-17T11:45:24.355Z,170
2016-02-17T11:47:21.346Z,170
2016-02-17T11:47:59.630Z,170
2016-02-17T11:48:33.958Z,170
2016-02-17T11:50:36.556Z,170
2016-02-17T11:51:14.888Z,170
2016-02-17T11:51:49.154Z,170
2016-02-17T11:53:51.752Z,170
2016-02-17T11:54:23.865Z,170
2016-02-17T11:55:04.398Z,170
2016-02-17T11:57:07.029Z,170
2016-02-17T11:57:38.826Z,170
2016-02-17T11:58:19.594Z,170
2016-02-17T12:00:16.600Z,170
2016-02-17T12:00:48.381Z,170
2016-02-17T12:01:42.023Z,170
2016-02-17T12:02:29.199Z,170
2016-02-17T12:03:48.404Z,170
2016-02-17T12:04:42.032Z,170
2016-02-17T12:05:35.664Z,170
2016-02-17T12:06:48.449Z,170
2016-02-17T12:07:41.997Z,170
2016-02-17T12:09:31.894Z,170
2016-02-17T12:10:10.225Z,170
2016-02-17T12:11:41.446Z,170
2016-02-17T12:12:56.668Z,170
2016-02-17T12:14:57.221Z,170
2016-02-17T12:15:31.535Z,170
2016-02-17T12:17:34.165Z,175
2016-02-17T12:18:25.185Z,175
2016-02-17T12:18:46.763Z,175
2016-02-17T12:20:49.361Z,175
2016-02-17T12:21:27.599Z,175
2016-02-17T12:22:02.036Z,175
2016-02-17T12:23:58.932Z,180
2016-02-17T12:24:11.637Z,180
2016-02-17T12:25:11.500Z,180
2016-02-17T12:26:24.284Z,180
2016-02-17T12:27:12.349Z,180
2016-02-17T12:28:12.164Z,175
2016-02-17T12:29:24.291Z,175
2016-02-17T12:30:18.607Z,180
2016-02-17T12:32:40.175Z,175
2016-02-17T12:34:37.539Z,180
2016-02-17T12:34:50.117Z,180
2016-02-17T12:36:52.764Z,175
2016-02-17T12:37:24.594Z,170
2016-02-17T12:38:05.456Z,175
2016-02-17T12:40:07.994Z,180
2016-02-17T12:40:39.806Z,180
2016-02-17T12:41:20.605Z,175
2016-02-17T12:43:30.314Z,175
2016-02-17T12:44:55.847Z,175
2016-02-17T12:45:36.460Z,175
2016-02-17T12:47:32.824Z,170
2016-02-17T12:47:45.371Z,170
2016-02-17T12:48:45.421Z,170
2016-02-17T12:49:58.190Z,175
2016-02-17T12:50:51.692Z,160
2016-02-17T12:52:11.151Z,175
2016-02-17T12:52:58.244Z,170
2016-02-17T12:56:17.489Z,175
2016-02-17T12:57:04.554Z,175
2016-02-17T13:00:33.220Z,175
2016-02-17T13:02:35.895Z,165
2016-02-17T13:02:48.442Z,165
2016-02-17T13:03:48.493Z,165
2016-02-17T13:04:54.761Z,155
2016-02-17T13:05:48.498Z,165
2016-02-17T13:07:01.453Z,165
2016-02-17T13:08:01.300Z,165
2016-02-17T13:09:45.525Z,165
2016-02-17T13:10:17.308Z,165
2016-02-17T13:12:19.922Z,155
2016-02-17T13:13:03.785Z,150
2016-02-17T13:13:38.800Z,155
2016-02-17T13:14:32.585Z,160
2016-02-17T13:15:45.399Z,155
2016-02-17T13:16:32.558Z,155
2016-02-17T13:17:51.921Z,155
2016-02-17T13:18:34.018Z,155
2016-02-17T13:20:35.210Z,160
2016-02-17T13:21:13.509Z,160
2016-02-17T13:21:47.993Z,160
2016-02-17T13:23:19.109Z,160
2016-02-17T13:24:00.624Z,160
2016-02-17T13:25:19.302Z,160
2016-02-17T13:26:00.677Z,160
2016-02-17T13:26:48.539Z,160
2016-02-17T13:28:44.857Z,160
2016-02-17T13:29:23.109Z,160
2016-02-17T13:32:09.633Z,160
2016-02-17T13:33:09.683Z,160
2016-02-17T13:34:16.606Z,160
2016-02-17T13:35:11.064Z,165
2016-02-17T13:37:12.928Z,160
2016-02-17T13:37:31.772Z,155
2016-02-17T13:38:25.492Z,155
2016-02-17T13:39:25.589Z,155
2016-02-17T13:40:38.420Z,155
2016-02-17T13:41:26.954Z,155
2016-02-17T13:43:25.584Z,155
2016-02-17T13:43:50.880Z,155
2016-02-17T13:46:57.421Z,155
2016-02-17T13:47:42.799Z,155
2016-02-17T13:49:10.054Z,160
2016-02-17T13:50:13.166Z,155
2016-02-17T13:50:44.979Z,155
2016-02-17T13:52:22.765Z,155
2016-02-17T13:53:37.987Z,155
2016-02-17T13:54:09.785Z,155
2016-02-17T13:55:09.789Z,155
2016-02-17T13:56:09.823Z,155
2016-02-17T13:57:47.732Z,150
2016-02-17T13:58:13.046Z,150
2016-02-17T13:59:51.706Z,150
2016-02-17T14:00:04.284Z,150
2016-02-17T14:02:06.932Z,150
2016-02-17T14:02:38.729Z,150
2016-02-17T14:03:19.404Z,150
2016-02-17T14:04:20.969Z,150
2016-02-17T14:05:32.347Z,150
2016-02-17T14:06:32.334Z,150
2016-02-17T14:09:21.092Z,150
2016-02-17T14:11:19.160Z,145
2016-02-17T14:11:31.738Z,145
2016-02-17T14:12:50.959Z,145
2016-02-17T14:13:32.399Z,150
2016-02-17T14:14:31.840Z,150
2016-02-17T14:15:31.639Z,150
2016-02-17T14:16:31.844Z,145
2016-02-17T14:17:31.816Z,145
2016-02-17T14:18:44.585Z,150
2016-02-17T14:19:44.447Z,150
2016-02-17T14:20:57.527Z,145
2016-02-17T14:22:22.377Z,145
2016-02-17T14:23:06.271Z,145
2016-02-17T14:24:00.630Z,145
2016-02-17T14:24:34.961Z,145
2016-02-17T14:26:25.512Z,145
2016-02-17T14:26:38.121Z,145
2016-02-17T14:28:40.706Z,140
2016-02-17T14:28:53.315Z,140
2016-02-17T14:29:53.364Z,140
2016-02-17T14:30:53.320Z,140
2016-02-17T14:31:53.385Z,135
2016-02-17T14:32:53.341Z,140
2016-02-17T14:34:06.159Z,140
2016-02-17T14:34:53.456Z,135
2016-02-17T14:36:12.837Z,135
2016-02-17T14:37:06.167Z,135
2016-02-17T14:38:24.733Z,135
2016-02-17T14:39:12.656Z,135
2016-02-17T14:40:24.784Z,130
2016-02-17T14:41:44.803Z,130
2016-02-17T14:41:57.381Z,130
2016-02-17T14:43:54.402Z,130
2016-02-17T14:44:07.124Z,130
2016-02-17T14:45:07.079Z,130
2016-02-17T14:46:07.051Z,135
2016-02-17T14:47:08.460Z,135
2016-02-17T14:48:07.040Z,140
2016-02-17T14:49:26.277Z,150
2016-02-17T14:50:19.827Z,155
2016-02-17T14:52:09.739Z,145
2016-02-17T14:52:41.864Z,140
2016-02-17T14:53:22.523Z,140
2016-02-17T14:55:25.122Z,140
2016-02-17T14:55:56.888Z,145
2016-02-17T14:57:29.096Z,150
2016-02-17T14:57:41.674Z,150
2016-02-17T14:59:33.039Z,150
2016-02-17T14:59:45.632Z,150
2016-02-17T15:01:48.232Z,140
2016-02-17T15:02:20.016Z,140
2016-02-17T15:03:00.876Z,135
2016-02-17T15:04:57.677Z,130
2016-02-17T15:05:35.977Z,130
2016-02-17T15:08:23.203Z,125
2016-02-17T15:09:23.128Z,125
2016-02-17T15:10:23.100Z,120
2016-02-17T15:11:35.900Z,120
2016-02-17T15:12:35.933Z,115
2016-02-17T15:13:42.419Z,115
2016-02-17T15:14:42.391Z,115
2016-02-17T15:16:45.647Z,115
2016-02-17T15:16:58.272Z,115
2016-02-17T15:18:55.230Z,105
2016-02-17T15:19:07.889Z,105
2016-02-17T15:20:39.141Z,105
2016-02-17T15:21:20.567Z,105
2016-02-17T15:22:07.866Z,100
2016-02-17T15:23:27.259Z,100
2016-02-17T15:24:07.888Z,100
2016-02-17T15:25:39.187Z,100
2016-02-17T15:26:09.423Z,100
2016-02-17T15:27:07.958Z,95
2016-02-17T15:28:07.945Z,95
2016-02-17T15:29:07.932Z,95
2016-02-17T15:30:08.576Z,90
2016-02-17T15:31:08.015Z,90
2016-02-17T15:32:08.081Z,90
2016-02-17T15:33:08.036Z,85
2016-02-17T15:34:08.071Z,85
2016-02-17T15:35:08.089Z,85
2016-02-17T15:36:09.497Z,85
2016-02-17T15:37:08.704Z,85
2016-02-17T15:38:08.175Z,80
2016-02-17T15:39:21.068Z,80
2016-02-17T15:40:08.181Z,80
2016-02-17T15:41:21.042Z,75
2016-02-17T15:42:08.169Z,75
2016-02-17T15:43:08.172Z,75
2016-02-17T15:44:20.956Z,70
2016-02-17T15:45:08.397Z,70
2016-02-17T15:46:08.258Z,65
2016-02-17T15:47:08.324Z,65
2016-02-17T15:48:08.296Z,65
2016-02-17T15:49:08.298Z,65
2016-02-17T15:50:08.302Z,65
2016-02-17T15:51:08.319Z,65
2016-02-17T15:52:08.352Z,65
2016-02-17T15:53:08.356Z,65
2016-02-17T15:54:08.421Z,65
2016-02-17T15:55:08.377Z,65
2016-02-17T15:56:08.473Z,65
2016-02-17T15:57:21.179Z,65
2016-02-17T15:58:08.526Z,65
2016-02-17T15:59:08.451Z,65
2016-02-17T16:00:21.235Z,65
2016-02-17T16:01:09.065Z,65
2016-02-17T16:02:27.708Z,60
2016-02-17T16:03:09.118Z,60
2016-02-17T16:04:27.760Z,60
2016-02-17T16:05:14.857Z,55
2016-02-17T16:06:39.812Z,55
2016-02-17T16:07:08.737Z,55
2016-02-17T16:09:11.196Z,50
2016-02-17T16:09:43.024Z,50
2016-02-17T16:10:23.792Z,45
2016-02-17T16:11:23.811Z,45
2016-02-17T16:12:23.860Z,45
2016-02-17T16:13:23.847Z,40
2016-02-17T16:14:23.928Z,40
2016-02-17T16:15:30.180Z,40
2016-02-17T16:16:23.902Z,40
2016-02-17T16:17:23.905Z,35
2016-02-17T16:18:23.985Z,35
2016-02-17T16:19:36.692Z,35
2016-02-17T16:20:25.366Z,30
2016-02-17T16:21:43.165Z,30
2016-02-17T16:22:23.965Z,30
2016-02-17T16:24:20.971Z,25
2016-02-17T16:24:33.580Z,25
2016-02-17T16:25:33.582Z,20
2016-02-17T16:26:33.601Z,20
2016-02-17T16:27:39.901Z,20
2016-02-17T16:28:39.903Z,15
2016-02-17T16:29:33.703Z,15
2016-02-17T16:30:46.377Z,15